createdAt,value
2022-12-29T00:01:10.482Z,100.00
2022-12-29T00:03:38.621Z,100.00
2022-12-29T00:06:06.764Z,100.00
2022-12-29T00:08:42.210Z,100.00
2022-12-29T00:11:11.208Z,100.00
2022-12-29T00:13:57.486Z,100.00
2022-12-29T00:16:25.613Z,100.00
2022-12-29T00:18:53.543Z,100.00
2022-12-29T00:21:41.054Z,100.00
2022-12-29T00:24:31.611Z,100.00
2022-12-29T00:27:28.512Z,100.00
2022-12-29T00:30:13.635Z,100.00
2022-12-29T00:32:59.284Z,100.00
2022-12-29T00:35:30.092Z,100.00
2022-12-29T00:38:18.472Z,100.00
2022-12-29T00:41:05.187Z,100.00
2022-12-29T00:43:50.598Z,100.00
2022-12-29T00:46:20.110Z,99.26
2022-12-29T00:49:06.333Z,99.40
2022-12-29T00:51:34.364Z,99.75
2022-12-29T00:54:02.223Z,99.78
2022-12-29T00:56:31.741Z,99.04
2022-12-29T00:59:02.669Z,99.46
2022-12-29T01:01:31.175Z,99.61
2022-12-29T01:04:03.774Z,99.20
2022-12-29T01:06:32.743Z,99.30
2022-12-29T01:09:18.901Z,98.58
2022-12-29T01:11:48.332Z,99.63
2022-12-29T01:14:16.365Z,99.35
2022-12-29T01:16:46.367Z,98.34
2022-12-29T01:19:14.860Z,98.17
2022-12-29T01:21:42.892Z,97.90
2022-12-29T01:24:11.325Z,98.24
2022-12-29T01:26:39.346Z,97.74
2022-12-29T01:29:08.696Z,97.29
2022-12-29T01:31:36.714Z,97.34
2022-12-29T01:34:04.945Z,96.98
2022-12-29T01:36:33.675Z,97.43
2022-12-29T01:39:02.304Z,97.69
2022-12-29T01:41:30.652Z,98.57
2022-12-29T01:44:01.899Z,97.86
2022-12-29T01:46:35.506Z,98.42
2022-12-29T01:49:10.715Z,98.32
2022-12-29T01:51:43.136Z,98.47
2022-12-29T01:54:15.125Z,99.01
2022-12-29T01:56:43.043Z,98.78
2022-12-29T01:59:20.244Z,99.50
2022-12-29T02:01:49.907Z,100.00
2022-12-29T02:04:17.955Z,100.00
2022-12-29T02:06:52.168Z,100.00
2022-12-29T02:09:21.870Z,99.82
2022-12-29T02:11:49.868Z,99.67
2022-12-29T02:14:17.748Z,100.00
2022-12-29T02:17:03.514Z,99.44
2022-12-29T02:20:11.228Z,100.00
2022-12-29T02:22:51.866Z,100.00
2022-12-29T02:25:49.181Z,100.00
2022-12-29T02:28:41.664Z,100.00
2022-12-29T02:31:19.263Z,100.00
2022-12-29T02:33:59.566Z,100.00
2022-12-29T02:36:39.284Z,100.00
2022-12-29T02:39:15.060Z,100.00
2022-12-29T02:41:55.197Z,100.00
2022-12-29T02:44:29.821Z,100.00
2022-12-29T02:47:05.370Z,100.00
2022-12-29T02:49:38.397Z,100.00
2022-12-29T02:52:12.159Z,100.00
2022-12-29T02:54:42.929Z,100.00
2022-12-29T02:57:20.783Z,100.00
2022-12-29T02:59:53.378Z,100.00
2022-12-29T03:02:34.231Z,100.00
2022-12-29T03:05:18.037Z,100.00
2022-12-29T03:07:56.052Z,100.00
2022-12-29T03:10:37.139Z,100.00
2022-12-29T03:13:29.556Z,99.69
2022-12-29T03:16:05.379Z,100.00
2022-12-29T03:18:44.330Z,100.00
2022-12-29T03:21:17.446Z,100.00
2022-12-29T03:23:50.625Z,100.00
2022-12-29T03:26:21.418Z,100.00
2022-12-29T03:28:55.306Z,100.00
2022-12-29T03:31:25.874Z,99.20
2022-12-29T03:33:57.913Z,99.01
2022-12-29T03:36:30.323Z,99.68
2022-12-29T03:39:04.351Z,98.83
2022-12-29T03:41:35.406Z,99.32
2022-12-29T03:44:03.418Z,100.00
2022-12-29T03:46:31.832Z,100.00
2022-12-29T03:49:01.338Z,99.98
2022-12-29T03:51:29.223Z,99.22
2022-12-29T03:53:57.435Z,99.02
2022-12-29T03:56:28.284Z,99.27
2022-12-29T03:58:57.835Z,99.37
2022-12-29T04:01:25.812Z,99.24
2022-12-29T04:03:53.743Z,98.93
2022-12-29T04:06:23.025Z,98.49
2022-12-29T04:08:50.958Z,98.16
2022-12-29T04:11:18.982Z,98.80
2022-12-29T04:13:46.947Z,98.96
2022-12-29T04:16:14.934Z,98.59
2022-12-29T04:18:44.734Z,99.00
2022-12-29T04:21:12.857Z,98.85
2022-12-29T04:23:42.457Z,99.29
2022-12-29T04:26:11.144Z,99.25
2022-12-29T04:28:39.575Z,99.43
2022-12-29T04:31:07.943Z,99.42
2022-12-29T04:33:35.916Z,99.65
2022-12-29T04:36:03.934Z,99.81
2022-12-29T04:38:31.994Z,100.00
2022-12-29T04:41:03.099Z,99.72
2022-12-29T04:43:31.631Z,99.46
2022-12-29T04:45:59.606Z,99.61
2022-12-29T04:48:27.543Z,100.00
2022-12-29T04:50:55.701Z,100.00
2022-12-29T04:53:23.721Z,100.00
2022-12-29T04:55:52.702Z,100.00
2022-12-29T04:58:24.172Z,99.28
2022-12-29T05:00:53.196Z,99.54
2022-12-29T05:03:21.307Z,99.87
2022-12-29T05:06:05.824Z,100.00
2022-12-29T05:08:33.709Z,100.00
2022-12-29T05:11:01.810Z,100.00
2022-12-29T05:13:31.009Z,100.00
2022-12-29T05:15:58.869Z,100.00
2022-12-29T05:18:27.072Z,100.00
2022-12-29T05:20:55.041Z,100.00
2022-12-29T05:23:23.036Z,100.00
2022-12-29T05:25:51.009Z,100.00
2022-12-29T05:28:18.967Z,100.00
2022-12-29T05:30:51.950Z,100.00
2022-12-29T05:33:20.271Z,100.00
2022-12-29T05:35:48.660Z,100.00
2022-12-29T05:38:16.611Z,100.00
2022-12-29T05:40:46.837Z,100.00
2022-12-29T05:43:14.701Z,100.00
2022-12-29T05:45:42.666Z,100.00
2022-12-29T05:48:14.525Z,100.00
2022-12-29T05:50:42.871Z,100.00
2022-12-29T05:53:10.939Z,100.00
2022-12-29T05:55:46.581Z,100.00
2022-12-29T05:58:16.916Z,100.00
2022-12-29T06:00:45.327Z,100.00
2022-12-29T06:03:14.834Z,100.00
2022-12-29T06:05:42.819Z,100.00
2022-12-29T06:08:10.685Z,99.15
2022-12-29T06:10:38.650Z,97.97
2022-12-29T06:13:07.496Z,96.53
2022-12-29T06:15:35.706Z,96.14
2022-12-29T06:18:03.679Z,94.97
2022-12-29T06:20:35.151Z,94.82
2022-12-29T06:23:03.047Z,95.33
2022-12-29T06:25:33.311Z,95.88
2022-12-29T06:28:01.916Z,95.92
2022-12-29T06:30:31.800Z,95.89
2022-12-29T06:33:00.278Z,96.08
2022-12-29T06:35:28.157Z,95.88
2022-12-29T06:37:57.403Z,95.39
2022-12-29T06:40:25.390Z,95.83
2022-12-29T06:42:53.321Z,95.56
2022-12-29T06:45:21.179Z,96.37
2022-12-29T06:47:49.203Z,97.56
2022-12-29T06:50:17.247Z,97.84
2022-12-29T06:52:45.270Z,97.77
2022-12-29T06:55:14.816Z,97.99
2022-12-29T06:57:42.700Z,98.13
2022-12-29T07:00:11.971Z,98.55
2022-12-29T07:02:39.998Z,98.36
2022-12-29T07:05:11.236Z,97.56
2022-12-29T07:07:39.589Z,97.58
2022-12-29T07:10:08.063Z,97.52
2022-12-29T07:12:37.498Z,97.75
2022-12-29T07:15:06.066Z,98.02
2022-12-29T07:17:34.302Z,97.95
2022-12-29T07:20:02.501Z,97.04
2022-12-29T07:22:30.451Z,97.23
2022-12-29T07:24:58.510Z,97.40
2022-12-29T07:27:26.353Z,97.22
2022-12-29T07:29:55.564Z,96.69
2022-12-29T07:32:23.605Z,96.75
2022-12-29T07:34:51.573Z,96.38
2022-12-29T07:37:19.758Z,95.49
2022-12-29T07:39:47.875Z,94.53
2022-12-29T07:42:15.975Z,95.77
2022-12-29T07:44:45.541Z,94.85
2022-12-29T07:47:17.947Z,96.15
2022-12-29T07:49:46.092Z,96.05
2022-12-29T07:52:13.935Z,95.43
2022-12-29T07:54:41.899Z,96.42
2022-12-29T07:57:09.885Z,97.17
2022-12-29T07:59:37.851Z,97.97
2022-12-29T08:02:06.035Z,97.52
2022-12-29T08:04:35.646Z,97.94
2022-12-29T08:07:03.507Z,98.18
2022-12-29T08:09:31.559Z,98.04
2022-12-29T08:11:59.879Z,97.77
2022-12-29T08:14:27.851Z,97.82
2022-12-29T08:16:55.923Z,98.98
2022-12-29T08:19:24.198Z,99.14
2022-12-29T08:21:54.687Z,99.29
2022-12-29T08:24:22.915Z,99.41
2022-12-29T08:26:50.880Z,99.24
2022-12-29T08:29:18.898Z,98.75
2022-12-29T08:31:46.940Z,98.21
2022-12-29T08:34:15.032Z,98.14
2022-12-29T08:36:42.896Z,97.11
2022-12-29T08:39:12.402Z,97.11
2022-12-29T08:41:40.514Z,97.27
2022-12-29T08:44:08.405Z,96.77
2022-12-29T08:46:36.521Z,96.98
2022-12-29T08:49:04.625Z,96.50
2022-12-29T08:51:32.692Z,96.10
2022-12-29T08:54:01.287Z,95.56
2022-12-29T08:56:30.932Z,95.17
2022-12-29T08:58:59.199Z,95.32
2022-12-29T09:01:27.249Z,94.09
2022-12-29T09:06:43.652Z,93.82
2022-12-29T09:09:12.092Z,94.42
2022-12-29T09:11:41.488Z,93.32
2022-12-29T09:14:09.742Z,93.07
2022-12-29T09:16:38.258Z,92.68
2022-12-29T09:19:06.671Z,92.74
2022-12-29T09:21:34.753Z,91.78
2022-12-29T09:24:03.063Z,91.53
2022-12-29T09:26:31.016Z,90.92
2022-12-29T09:29:00.332Z,90.70
2022-12-29T09:31:28.233Z,88.96
2022-12-29T09:33:56.095Z,89.42
2022-12-29T09:36:24.230Z,88.91
2022-12-29T09:38:52.313Z,89.19
2022-12-29T09:41:27.139Z,88.21
2022-12-29T09:44:09.213Z,87.56
2022-12-29T09:46:42.189Z,87.72
2022-12-29T09:49:23.346Z,87.64
2022-12-29T09:51:54.534Z,87.96
2022-12-29T09:54:33.295Z,87.26
2022-12-29T09:57:01.925Z,85.96
2022-12-29T09:59:40.295Z,85.22
2022-12-29T10:02:22.986Z,84.01
2022-12-29T10:04:53.889Z,83.84
2022-12-29T10:07:31.186Z,83.47
2022-12-29T10:10:17.937Z,82.41
2022-12-29T10:13:02.895Z,82.90
2022-12-29T10:15:49.807Z,82.82
2022-12-29T10:18:37.930Z,82.30
2022-12-29T10:21:17.114Z,81.61
2022-12-29T10:23:47.875Z,80.75
2022-12-29T10:26:19.899Z,80.72
2022-12-29T10:28:51.644Z,80.02
2022-12-29T10:31:24.832Z,79.58
2022-12-29T10:33:58.585Z,79.39
2022-12-29T10:36:35.964Z,79.59
2022-12-29T10:39:12.934Z,79.08
2022-12-29T10:41:46.786Z,78.71
2022-12-29T10:44:18.146Z,77.55
2022-12-29T10:46:54.141Z,76.84
2022-12-29T10:49:22.689Z,76.96
2022-12-29T10:51:53.097Z,76.43
2022-12-29T10:54:26.283Z,76.02
2022-12-29T10:56:59.315Z,75.83
2022-12-29T10:59:31.554Z,76.52
2022-12-29T11:02:16.674Z,76.08
2022-12-29T11:04:53.248Z,75.33
2022-12-29T11:07:26.925Z,75.22
2022-12-29T11:09:55.869Z,75.00
2022-12-29T11:12:26.272Z,74.62
2022-12-29T11:15:16.080Z,75.63
2022-12-29T11:17:50.477Z,74.50
2022-12-29T11:20:35.870Z,74.94
2022-12-29T11:23:05.413Z,75.57
2022-12-29T11:25:33.504Z,75.50
2022-12-29T11:28:05.278Z,74.64
2022-12-29T11:30:34.400Z,73.22
2022-12-29T11:33:08.574Z,73.31
2022-12-29T11:35:38.430Z,72.68
2022-12-29T11:38:07.064Z,71.73
2022-12-29T11:40:41.488Z,72.12
2022-12-29T11:43:21.860Z,71.88
2022-12-29T11:45:50.200Z,71.51
2022-12-29T11:48:22.099Z,70.86
2022-12-29T11:50:53.943Z,71.30
2022-12-29T11:53:25.188Z,70.98
2022-12-29T11:55:56.044Z,72.49
2022-12-29T11:58:33.704Z,72.22
2022-12-29T12:01:05.307Z,72.47
2022-12-29T12:03:40.961Z,73.22
2022-12-29T12:06:14.877Z,72.83
2022-12-29T12:08:51.015Z,73.57
2022-12-29T12:11:22.801Z,73.98
2022-12-29T12:14:03.482Z,73.87
2022-12-29T12:16:39.229Z,73.84
2022-12-29T12:19:18.914Z,74.80
2022-12-29T12:21:52.444Z,75.61
2022-12-29T12:24:38.289Z,75.64
2022-12-29T12:27:15.011Z,75.58
2022-12-29T12:29:49.070Z,75.83
2022-12-29T12:32:25.273Z,75.77
2022-12-29T12:34:54.620Z,76.92
2022-12-29T12:37:41.234Z,76.72
2022-12-29T12:40:27.281Z,77.47
2022-12-29T12:43:10.617Z,77.05
2022-12-29T12:45:51.161Z,78.02
2022-12-29T12:48:45.997Z,77.57
2022-12-29T12:51:22.216Z,77.60
2022-12-29T12:54:04.504Z,76.75
2022-12-29T12:56:48.388Z,77.03
2022-12-29T12:59:31.513Z,77.78
2022-12-29T13:02:09.902Z,77.40
2022-12-29T13:05:01.888Z,77.17
2022-12-29T13:07:47.327Z,77.29
2022-12-29T13:10:27.215Z,77.12
2022-12-29T13:13:03.049Z,76.36
2022-12-29T13:15:46.642Z,75.81
2022-12-29T13:18:24.601Z,75.29
2022-12-29T13:20:58.270Z,74.96
2022-12-29T13:23:33.540Z,74.60
2022-12-29T13:26:10.934Z,75.95
2022-12-29T13:28:49.502Z,76.97
2022-12-29T13:31:22.190Z,77.42
2022-12-29T13:33:58.605Z,78.15
2022-12-29T13:36:31.715Z,78.76
2022-12-29T13:39:07.846Z,79.49
2022-12-29T13:41:39.705Z,80.53
2022-12-29T13:44:09.339Z,81.03
2022-12-29T13:46:42.625Z,80.98
2022-12-29T13:49:17.477Z,82.01
2022-12-29T13:51:52.395Z,81.34
2022-12-29T13:54:37.752Z,81.82
2022-12-29T13:57:12.577Z,80.78
2022-12-29T13:59:52.064Z,80.88
2022-12-29T14:02:29.792Z,80.28
2022-12-29T14:05:00.643Z,80.18
2022-12-29T14:07:29.914Z,80.13
2022-12-29T14:09:59.722Z,81.18
2022-12-29T14:12:38.278Z,82.56
2022-12-29T14:15:21.645Z,81.26
2022-12-29T14:18:05.776Z,81.98
2022-12-29T14:20:34.710Z,85.02
2022-12-29T14:23:17.005Z,87.42
2022-12-29T14:25:58.482Z,88.07
2022-12-29T14:28:28.417Z,89.49
2022-12-29T14:30:58.254Z,88.69
2022-12-29T14:33:28.824Z,89.13
2022-12-29T14:35:57.860Z,89.13
2022-12-29T14:38:28.632Z,89.14
2022-12-29T14:41:21.121Z,88.85
2022-12-29T14:44:04.948Z,89.11
2022-12-29T14:46:48.444Z,88.89
2022-12-29T14:49:20.336Z,88.03
2022-12-29T14:51:49.895Z,88.73
2022-12-29T14:54:51.968Z,89.14
2022-12-29T14:57:29.215Z,88.49
2022-12-29T15:00:06.681Z,88.66
2022-12-29T15:02:40.731Z,89.39
2022-12-29T15:05:26.751Z,89.12
2022-12-29T15:07:57.494Z,90.19
2022-12-29T15:10:26.646Z,90.53
2022-12-29T15:12:57.155Z,90.47
2022-12-29T15:15:27.161Z,91.21
2022-12-29T15:17:55.414Z,91.14
2022-12-29T15:20:27.232Z,91.18
2022-12-29T15:22:58.551Z,91.22
2022-12-29T15:25:27.445Z,91.49
2022-12-29T15:28:01.548Z,91.15
2022-12-29T15:30:29.641Z,91.44
2022-12-29T15:32:57.689Z,91.69
2022-12-29T15:35:34.031Z,91.29
2022-12-29T15:38:04.299Z,91.66
2022-12-29T15:40:33.692Z,90.76
2022-12-29T15:43:15.884Z,90.43
2022-12-29T15:45:44.010Z,90.89
2022-12-29T15:48:19.253Z,90.45
2022-12-29T15:50:48.579Z,91.02
2022-12-29T15:53:29.554Z,89.51
2022-12-29T15:56:03.217Z,89.55
2022-12-29T15:58:41.036Z,88.93
2022-12-29T16:01:20.140Z,89.28
2022-12-29T16:03:49.230Z,88.46
2022-12-29T16:06:30.441Z,88.96
2022-12-29T16:09:00.145Z,88.06
2022-12-29T16:11:33.072Z,88.10
2022-12-29T16:14:04.068Z,88.31
2022-12-29T16:16:38.345Z,88.82
2022-12-29T16:19:16.600Z,88.33
2022-12-29T16:21:45.316Z,88.32
2022-12-29T16:24:19.920Z,88.17
2022-12-29T16:26:50.839Z,87.98
2022-12-29T16:29:25.574Z,88.61
2022-12-29T16:32:01.582Z,88.37
2022-12-29T16:34:33.523Z,87.48
2022-12-29T16:37:02.517Z,88.03
2022-12-29T16:39:36.059Z,87.67
2022-12-29T16:42:24.516Z,87.52
2022-12-29T16:45:09.601Z,87.65
2022-12-29T16:47:37.606Z,87.19
2022-12-29T16:50:28.188Z,86.32
2022-12-29T16:52:56.616Z,87.02
2022-12-29T16:55:27.585Z,87.14
2022-12-29T16:57:57.701Z,87.71
2022-12-29T17:00:30.999Z,87.20
2022-12-29T17:03:01.282Z,87.76
2022-12-29T17:05:30.671Z,87.28
2022-12-29T17:08:01.833Z,88.05
2022-12-29T17:10:50.550Z,87.23
2022-12-29T17:13:18.436Z,86.99
2022-12-29T17:15:47.763Z,86.37
2022-12-29T17:18:15.721Z,86.24
2022-12-29T17:20:43.625Z,85.84
2022-12-29T17:23:22.801Z,85.12
2022-12-29T17:25:55.132Z,85.00
2022-12-29T17:28:26.455Z,85.06
2022-12-29T17:30:59.392Z,85.69
2022-12-29T17:33:27.406Z,85.88
2022-12-29T17:35:55.984Z,85.95
2022-12-29T17:38:27.575Z,85.12
2022-12-29T17:40:55.601Z,85.33
2022-12-29T17:43:23.470Z,85.75
2022-12-29T17:45:56.712Z,85.83
2022-12-29T17:48:25.632Z,86.03
2022-12-29T17:50:55.303Z,85.81
2022-12-29T17:53:27.700Z,85.33
2022-12-29T17:55:55.597Z,85.30
2022-12-29T17:58:25.538Z,84.88
2022-12-29T18:00:57.163Z,84.85
2022-12-29T18:03:28.708Z,85.06
2022-12-29T18:05:57.109Z,84.94
2022-12-29T18:08:24.978Z,84.28
2022-12-29T18:10:55.463Z,84.36
2022-12-29T18:13:27.943Z,84.44
2022-12-29T18:16:00.190Z,84.43
2022-12-29T18:18:29.112Z,84.03
2022-12-29T18:21:00.852Z,83.71
2022-12-29T18:23:32.359Z,83.12
2022-12-29T18:26:03.559Z,83.11
2022-12-29T18:28:31.885Z,83.62
2022-12-29T18:31:02.450Z,82.81
2022-12-29T18:33:30.972Z,83.27
2022-12-29T18:36:00.509Z,83.84
2022-12-29T18:38:29.736Z,83.06
2022-12-29T18:40:58.793Z,83.33
2022-12-29T18:43:27.045Z,83.75
2022-12-29T18:45:57.290Z,84.00
2022-12-29T18:48:26.565Z,84.32
2022-12-29T18:50:55.090Z,84.02
2022-12-29T18:53:24.258Z,84.66
2022-12-29T18:55:52.689Z,84.17
2022-12-29T18:58:26.794Z,84.62
2022-12-29T19:00:58.697Z,84.27
2022-12-29T19:03:29.897Z,84.69
2022-12-29T19:05:57.836Z,84.69
2022-12-29T19:08:26.628Z,84.97
2022-12-29T19:10:54.421Z,84.75
2022-12-29T19:13:30.601Z,84.83
2022-12-29T19:15:59.979Z,85.21
2022-12-29T19:18:43.650Z,84.29
2022-12-29T19:21:12.610Z,83.82
2022-12-29T19:23:40.840Z,83.82
2022-12-29T19:26:09.073Z,83.84
2022-12-29T19:28:36.979Z,83.78
2022-12-29T19:31:05.190Z,84.37
2022-12-29T19:33:34.468Z,84.84
2022-12-29T19:36:03.809Z,84.99
2022-12-29T19:38:32.271Z,85.45
2022-12-29T19:41:00.262Z,85.53
2022-12-29T19:43:28.210Z,86.44
2022-12-29T19:45:56.312Z,86.69
2022-12-29T19:48:24.141Z,86.34
2022-12-29T19:50:53.381Z,85.77
2022-12-29T19:53:21.285Z,86.69
2022-12-29T19:55:49.098Z,85.69
2022-12-29T19:58:17.184Z,85.31
2022-12-29T20:00:45.375Z,86.11
2022-12-29T20:03:13.466Z,86.27
2022-12-29T20:05:41.481Z,86.15
2022-12-29T20:08:10.738Z,87.24
2022-12-29T20:10:38.589Z,88.68
2022-12-29T20:13:06.574Z,89.19
2022-12-29T20:15:34.501Z,90.42
2022-12-29T20:18:13.110Z,90.40
2022-12-29T20:20:42.091Z,91.29
2022-12-29T20:23:11.686Z,91.23
2022-12-29T20:25:47.765Z,90.52
2022-12-29T20:28:16.900Z,89.25
2022-12-29T20:30:45.159Z,87.91
2022-12-29T20:33:12.997Z,87.10
2022-12-29T20:35:40.995Z,87.58
2022-12-29T20:38:11.513Z,88.10
2022-12-29T20:40:46.199Z,88.31
2022-12-29T20:43:16.169Z,87.76
2022-12-29T20:45:44.304Z,87.18
2022-12-29T20:48:12.341Z,87.48
2022-12-29T20:50:40.567Z,87.51
2022-12-29T20:53:08.437Z,86.99
2022-12-29T20:55:40.875Z,87.51
2022-12-29T20:58:25.300Z,87.88
2022-12-29T21:00:53.945Z,87.55
2022-12-29T21:03:25.634Z,86.67
2022-12-29T21:05:53.938Z,86.57
2022-12-29T21:08:22.182Z,86.08
2022-12-29T21:10:52.490Z,86.23
2022-12-29T21:13:21.201Z,86.47
2022-12-29T21:15:49.491Z,86.61
2022-12-29T21:18:17.572Z,87.64
2022-12-29T21:20:45.453Z,88.19
2022-12-29T21:23:13.400Z,89.65
2022-12-29T21:25:45.095Z,90.82
2022-12-29T21:28:14.503Z,91.77
2022-12-29T21:30:43.100Z,90.46
2022-12-29T21:33:11.149Z,89.97
2022-12-29T21:35:39.693Z,89.41
2022-12-29T21:38:07.969Z,89.67
2022-12-29T21:40:37.810Z,88.43
2022-12-29T21:43:06.049Z,88.99
2022-12-29T21:45:34.454Z,88.11
2022-12-29T21:48:24.221Z,86.72
2022-12-29T21:51:11.454Z,86.89
2022-12-29T21:53:41.893Z,86.47
2022-12-29T21:56:11.508Z,86.54
2022-12-29T21:58:57.983Z,86.35
2022-12-29T22:01:45.635Z,86.55
2022-12-29T22:04:32.339Z,87.08
2022-12-29T22:07:18.106Z,87.81
2022-12-29T22:10:03.474Z,87.81
2022-12-29T22:12:49.448Z,88.20
2022-12-29T22:15:17.733Z,87.89
2022-12-29T22:17:48.973Z,88.08
2022-12-29T22:20:17.753Z,87.51
2022-12-29T22:22:45.747Z,86.71
2022-12-29T22:25:14.536Z,86.18
2022-12-29T22:27:42.738Z,85.57
2022-12-29T22:30:11.611Z,85.36
2022-12-29T22:32:39.534Z,84.86
2022-12-29T22:35:10.362Z,85.11
2022-12-29T22:37:40.445Z,85.20
2022-12-29T22:40:12.647Z,84.73
2022-12-29T22:42:40.857Z,84.37
2022-12-29T22:45:09.966Z,84.77
2022-12-29T22:47:38.782Z,85.18
2022-12-29T22:50:08.809Z,85.18
2022-12-29T22:52:37.019Z,85.33
2022-12-29T22:55:07.149Z,84.89
2022-12-29T22:57:35.522Z,85.62
2022-12-29T23:00:03.480Z,85.96
2022-12-29T23:02:31.561Z,84.82
2022-12-29T23:05:03.683Z,86.02
2022-12-29T23:07:35.362Z,85.36
2022-12-29T23:10:03.746Z,86.20
2022-12-29T23:12:32.272Z,86.72
2022-12-29T23:15:04.371Z,85.55
2022-12-29T23:17:32.292Z,86.10
2022-12-29T23:20:00.599Z,84.87
2022-12-29T23:22:28.592Z,83.65
2022-12-29T23:24:57.849Z,83.75
2022-12-29T23:27:25.747Z,82.75
2022-12-29T23:29:53.709Z,83.38
2022-12-29T23:32:21.959Z,83.40
2022-12-29T23:34:49.831Z,83.03
2022-12-29T23:37:17.637Z,83.91
2022-12-29T23:39:45.488Z,83.91
2022-12-29T23:42:14.921Z,83.89
2022-12-29T23:44:42.874Z,83.44
2022-12-29T23:47:10.738Z,83.69
2022-12-29T23:49:38.563Z,83.03
2022-12-29T23:52:06.478Z,82.76
2022-12-29T23:54:34.304Z,83.41
2022-12-29T23:57:02.159Z,84.86
2022-12-29T23:59:31.552Z,84.19
